Dumas, Moore County Airport (KDUX)

NameMoore County Airport
CityDumas
CountryUnited States
ICAOKDUX
IATA
Altitude1129 m
CoordinatesGoogle Map
Live Air TrafficLiveATC.net
METARKDUX 231255Z AUTO 18008KT 10SM OVC014 01/00 A2951 RMK AO2 T00070001
2019-02-23 12:55:00 Wind: South (180°) 4.12 m/s - Visibility: 16093.4 m - Temperature: 1 °C - Dew point: 0 °C - Humidity: 93.1% - Pressure: 999.32 hPa

Sorry, no flights used the airport in this database.